sensor_id;sensor_type;location;lat;lon;timestamp;P1;durP1;ratioP1;P2;durP2;ratioP2
18520;SDS011;9390;51.244;6.982;2023-08-31T00:01:30;20.88;;;7.75;;
18520;SDS011;9390;51.244;6.982;2023-08-31T00:04:02;20.80;;;8.32;;
18520;SDS011;9390;51.244;6.982;2023-08-31T00:06:36;18.00;;;8.02;;
18520;SDS011;9390;51.244;6.982;2023-08-31T00:09:08;21.73;;;7.97;;
18520;SDS011;9390;51.244;6.982;2023-08-31T00:11:39;20.70;;;9.32;;
18520;SDS011;9390;51.244;6.982;2023-08-31T00:14:11;22.00;;;8.05;;
18520;SDS011;9390;51.244;6.982;2023-08-31T00:16:42;27.83;;;8.43;;
18520;SDS011;9390;51.244;6.982;2023-08-31T00:19:17;21.65;;;8.38;;
18520;SDS011;9390;51.244;6.982;2023-08-31T00:21:49;27.30;;;9.00;;
18520;SDS011;9390;51.244;6.982;2023-08-31T00:24:20;29.25;;;8.60;;
18520;SDS011;9390;51.244;6.982;2023-08-31T00:27:01;23.95;;;9.10;;
18520;SDS011;9390;51.244;6.982;2023-08-31T00:29:33;22.15;;;8.23;;
18520;SDS011;9390;51.244;6.982;2023-08-31T00:32:05;29.03;;;9.43;;
18520;SDS011;9390;51.244;6.982;2023-08-31T00:34:38;24.77;;;9.02;;
18520;SDS011;9390;51.244;6.982;2023-08-31T00:39:41;27.75;;;8.95;;
18520;SDS011;9390;51.244;6.982;2023-08-31T00:42:13;19.92;;;8.88;;
18520;SDS011;9390;51.244;6.982;2023-08-31T00:44:45;28.88;;;9.38;;
18520;SDS011;9390;51.244;6.982;2023-08-31T00:47:17;27.92;;;8.73;;
18520;SDS011;9390;51.244;6.982;2023-08-31T00:49:51;28.52;;;9.05;;
18520;SDS011;9390;51.244;6.982;2023-08-31T00:52:22;19.60;;;8.60;;
18520;SDS011;9390;51.244;6.982;2023-08-31T00:54:54;27.17;;;8.90;;
18520;SDS011;9390;51.244;6.982;2023-08-31T00:57:26;25.60;;;8.55;;
18520;SDS011;9390;51.244;6.982;2023-08-31T00:59:58;30.25;;;9.63;;
18520;SDS011;9390;51.244;6.982;2023-08-31T01:02:30;20.08;;;9.52;;
18520;SDS011;9390;51.244;6.982;2023-08-31T01:05:08;20.75;;;9.35;;
18520;SDS011;9390;51.244;6.982;2023-08-31T01:07:45;21.77;;;8.75;;
18520;SDS011;9390;51.244;6.982;2023-08-31T01:10:22;22.05;;;8.45;;
18520;SDS011;9390;51.244;6.982;2023-08-31T01:13:02;23.50;;;8.85;;
18520;SDS011;9390;51.244;6.982;2023-08-31T01:15:35;18.45;;;8.20;;
18520;SDS011;9390;51.244;6.982;2023-08-31T01:18:07;19.92;;;8.98;;
18520;SDS011;9390;51.244;6.982;2023-08-31T01:20:44;25.10;;;9.23;;
18520;SDS011;9390;51.244;6.982;2023-08-31T01:23:18;18.08;;;8.40;;
18520;SDS011;9390;51.244;6.982;2023-08-31T01:25:51;27.65;;;9.13;;
18520;SDS011;9390;51.244;6.982;2023-08-31T01:28:23;20.35;;;9.23;;
18520;SDS011;9390;51.244;6.982;2023-08-31T01:30:54;22.88;;;8.57;;
18520;SDS011;9390;51.244;6.982;2023-08-31T01:33:26;26.10;;;9.18;;
18520;SDS011;9390;51.244;6.982;2023-08-31T01:35:57;21.33;;;8.90;;
18520;SDS011;9390;51.244;6.982;2023-08-31T01:38:30;25.77;;;9.45;;
18520;SDS011;9390;51.244;6.982;2023-08-31T01:41:06;26.25;;;9.40;;
18520;SDS011;9390;51.244;6.982;2023-08-31T01:43:39;24.25;;;9.38;;
18520;SDS011;9390;51.244;6.982;2023-08-31T01:46:11;26.52;;;10.18;;
18520;SDS011;9390;51.244;6.982;2023-08-31T01:48:43;28.67;;;10.07;;
18520;SDS011;9390;51.244;6.982;2023-08-31T01:51:15;22.20;;;9.00;;
18520;SDS011;9390;51.244;6.982;2023-08-31T01:53:47;25.00;;;9.80;;
18520;SDS011;9390;51.244;6.982;2023-08-31T01:56:20;27.55;;;9.80;;
18520;SDS011;9390;51.244;6.982;2023-08-31T01:58:51;20.67;;;9.73;;
18520;SDS011;9390;51.244;6.982;2023-08-31T02:01:23;26.05;;;10.35;;
18520;SDS011;9390;51.244;6.982;2023-08-31T02:03:54;28.30;;;9.55;;
18520;SDS011;9390;51.244;6.982;2023-08-31T02:06:26;34.72;;;10.13;;
18520;SDS011;9390;51.244;6.982;2023-08-31T02:08:57;26.35;;;10.35;;
18520;SDS011;9390;51.244;6.982;2023-08-31T02:11:30;28.00;;;10.60;;
18520;SDS011;9390;51.244;6.982;2023-08-31T02:14:01;23.65;;;10.15;;
18520;SDS011;9390;51.244;6.982;2023-08-31T02:16:33;29.80;;;10.55;;
18520;SDS011;9390;51.244;6.982;2023-08-31T02:19:05;26.50;;;10.40;;
18520;SDS011;9390;51.244;6.982;2023-08-31T02:21:36;25.67;;;9.95;;
18520;SDS011;9390;51.244;6.982;2023-08-31T02:24:08;27.70;;;9.13;;
18520;SDS011;9390;51.244;6.982;2023-08-31T02:26:41;24.50;;;10.25;;
18520;SDS011;9390;51.244;6.982;2023-08-31T02:29:12;21.65;;;9.73;;
18520;SDS011;9390;51.244;6.982;2023-08-31T02:31:44;20.77;;;9.55;;
18520;SDS011;9390;51.244;6.982;2023-08-31T02:34:15;21.95;;;10.05;;
18520;SDS011;9390;51.244;6.982;2023-08-31T02:36:47;28.02;;;10.05;;
18520;SDS011;9390;51.244;6.982;2023-08-31T02:39:18;25.90;;;9.77;;
18520;SDS011;9390;51.244;6.982;2023-08-31T02:41:51;25.52;;;9.40;;
18520;SDS011;9390;51.244;6.982;2023-08-31T02:44:22;22.67;;;9.65;;
18520;SDS011;9390;51.244;6.982;2023-08-31T02:46:54;26.02;;;11.07;;
18520;SDS011;9390;51.244;6.982;2023-08-31T02:49:25;33.28;;;10.30;;
18520;SDS011;9390;51.244;6.982;2023-08-31T02:51:57;23.30;;;10.00;;
18520;SDS011;9390;51.244;6.982;2023-08-31T02:54:28;23.77;;;9.90;;
18520;SDS011;9390;51.244;6.982;2023-08-31T02:57:01;28.65;;;10.90;;
18520;SDS011;9390;51.244;6.982;2023-08-31T02:59:33;22.98;;;9.85;;
18520;SDS011;9390;51.244;6.982;2023-08-31T03:02:18;25.63;;;10.63;;
18520;SDS011;9390;51.244;6.982;2023-08-31T03:04:49;28.05;;;10.88;;
18520;SDS011;9390;51.244;6.982;2023-08-31T03:07:21;30.17;;;10.45;;
18520;SDS011;9390;51.244;6.982;2023-08-31T03:09:52;26.90;;;10.50;;
18520;SDS011;9390;51.244;6.982;2023-08-31T03:12:23;24.58;;;10.10;;
18520;SDS011;9390;51.244;6.982;2023-08-31T03:14:55;29.77;;;10.48;;
18520;SDS011;9390;51.244;6.982;2023-08-31T03:17:27;26.38;;;10.48;;
18520;SDS011;9390;51.244;6.982;2023-08-31T03:19:59;26.70;;;10.05;;
18520;SDS011;9390;51.244;6.982;2023-08-31T03:22:30;26.92;;;9.82;;
18520;SDS011;9390;51.244;6.982;2023-08-31T03:25:02;33.25;;;10.57;;
18520;SDS011;9390;51.244;6.982;2023-08-31T03:27:33;30.02;;;10.07;;
18520;SDS011;9390;51.244;6.982;2023-08-31T03:30:06;28.88;;;9.88;;
18520;SDS011;9390;51.244;6.982;2023-08-31T03:32:39;23.40;;;9.60;;
18520;SDS011;9390;51.244;6.982;2023-08-31T03:35:12;32.05;;;10.45;;
18520;SDS011;9390;51.244;6.982;2023-08-31T03:37:46;38.55;;;10.93;;
18520;SDS011;9390;51.244;6.982;2023-08-31T03:40:18;31.75;;;9.65;;
18520;SDS011;9390;51.244;6.982;2023-08-31T03:42:49;25.33;;;10.13;;
18520;SDS011;9390;51.244;6.982;2023-08-31T03:45:21;27.08;;;11.13;;
18520;SDS011;9390;51.244;6.982;2023-08-31T03:47:53;29.42;;;11.38;;
18520;SDS011;9390;51.244;6.982;2023-08-31T03:50:25;32.22;;;11.10;;
18520;SDS011;9390;51.244;6.982;2023-08-31T03:52:56;31.90;;;11.38;;
18520;SDS011;9390;51.244;6.982;2023-08-31T03:55:27;34.42;;;11.10;;
18520;SDS011;9390;51.244;6.982;2023-08-31T03:57:59;26.33;;;11.30;;
18520;SDS011;9390;51.244;6.982;2023-08-31T04:00:30;30.65;;;11.65;;
18520;SDS011;9390;51.244;6.982;2023-08-31T04:03:03;28.73;;;11.63;;
18520;SDS011;9390;51.244;6.982;2023-08-31T04:05:35;26.70;;;11.68;;
18520;SDS011;9390;51.244;6.982;2023-08-31T04:08:07;29.65;;;12.43;;
18520;SDS011;9390;51.244;6.982;2023-08-31T04:10:38;31.30;;;12.30;;
18520;SDS011;9390;51.244;6.982;2023-08-31T04:13:09;33.22;;;12.00;;
18520;SDS011;9390;51.244;6.982;2023-08-31T04:15:41;32.45;;;12.50;;
18520;SDS011;9390;51.244;6.982;2023-08-31T04:18:13;32.33;;;12.15;;
18520;SDS011;9390;51.244;6.982;2023-08-31T04:20:48;32.40;;;12.88;;
18520;SDS011;9390;51.244;6.982;2023-08-31T04:23:21;27.67;;;12.40;;
18520;SDS011;9390;51.244;6.982;2023-08-31T04:25:52;37.22;;;12.93;;
18520;SDS011;9390;51.244;6.982;2023-08-31T04:28:23;39.50;;;12.82;;
18520;SDS011;9390;51.244;6.982;2023-08-31T04:30:55;33.47;;;13.18;;
18520;SDS011;9390;51.244;6.982;2023-08-31T04:33:28;34.00;;;12.88;;
18520;SDS011;9390;51.244;6.982;2023-08-31T04:35:59;32.63;;;12.52;;
18520;SDS011;9390;51.244;6.982;2023-08-31T04:38:31;30.25;;;11.60;;
18520;SDS011;9390;51.244;6.982;2023-08-31T04:41:02;32.53;;;12.23;;
18520;SDS011;9390;51.244;6.982;2023-08-31T04:43:33;34.78;;;12.93;;
18520;SDS011;9390;51.244;6.982;2023-08-31T04:46:05;34.67;;;12.20;;
18520;SDS011;9390;51.244;6.982;2023-08-31T04:48:38;33.25;;;12.68;;
18520;SDS011;9390;51.244;6.982;2023-08-31T04:51:09;36.92;;;12.32;;
18520;SDS011;9390;51.244;6.982;2023-08-31T04:53:58;34.88;;;12.50;;
18520;SDS011;9390;51.244;6.982;2023-08-31T04:56:30;30.92;;;12.77;;
18520;SDS011;9390;51.244;6.982;2023-08-31T04:59:03;31.27;;;12.40;;
18520;SDS011;9390;51.244;6.982;2023-08-31T05:01:34;32.72;;;13.05;;
18520;SDS011;9390;51.244;6.982;2023-08-31T05:04:07;28.23;;;12.48;;
18520;SDS011;9390;51.244;6.982;2023-08-31T05:06:38;34.88;;;13.35;;
18520;SDS011;9390;51.244;6.982;2023-08-31T05:09:10;34.47;;;13.73;;
18520;SDS011;9390;51.244;6.982;2023-08-31T05:11:41;33.70;;;13.23;;
18520;SDS011;9390;51.244;6.982;2023-08-31T05:14:12;30.92;;;12.32;;
18520;SDS011;9390;51.244;6.982;2023-08-31T05:16:44;29.00;;;13.00;;
18520;SDS011;9390;51.244;6.982;2023-08-31T05:19:17;27.40;;;13.02;;
18520;SDS011;9390;51.244;6.982;2023-08-31T05:24:19;28.30;;;12.50;;
18520;SDS011;9390;51.244;6.982;2023-08-31T05:26:51;32.38;;;13.38;;
18520;SDS011;9390;51.244;6.982;2023-08-31T05:29:22;31.90;;;14.35;;
18520;SDS011;9390;51.244;6.982;2023-08-31T05:31:54;27.55;;;13.90;;
18520;SDS011;9390;51.244;6.982;2023-08-31T05:34:26;32.72;;;13.10;;
18520;SDS011;9390;51.244;6.982;2023-08-31T05:36:58;33.88;;;14.52;;
18520;SDS011;9390;51.244;6.982;2023-08-31T05:39:29;33.42;;;14.52;;
18520;SDS011;9390;51.244;6.982;2023-08-31T05:42:00;31.63;;;13.65;;
18520;SDS011;9390;51.244;6.982;2023-08-31T05:44:34;31.15;;;13.40;;
18520;SDS011;9390;51.244;6.982;2023-08-31T05:47:06;31.35;;;13.70;;
18520;SDS011;9390;51.244;6.982;2023-08-31T05:49:38;28.23;;;13.52;;
18520;SDS011;9390;51.244;6.982;2023-08-31T05:52:10;38.10;;;14.57;;
18520;SDS011;9390;51.244;6.982;2023-08-31T05:54:41;31.23;;;13.98;;
18520;SDS011;9390;51.244;6.982;2023-08-31T05:57:12;30.10;;;13.68;;
18520;SDS011;9390;51.244;6.982;2023-08-31T05:59:44;35.33;;;14.43;;
18520;SDS011;9390;51.244;6.982;2023-08-31T06:02:15;27.10;;;12.27;;
18520;SDS011;9390;51.244;6.982;2023-08-31T06:04:48;30.23;;;13.65;;
18520;SDS011;9390;51.244;6.982;2023-08-31T06:07:19;32.38;;;13.30;;
18520;SDS011;9390;51.244;6.982;2023-08-31T06:09:51;28.10;;;13.25;;
18520;SDS011;9390;51.244;6.982;2023-08-31T06:12:22;28.10;;;13.18;;
18520;SDS011;9390;51.244;6.982;2023-08-31T06:14:54;29.25;;;12.73;;
18520;SDS011;9390;51.244;6.982;2023-08-31T06:17:25;25.33;;;12.52;;
18520;SDS011;9390;51.244;6.982;2023-08-31T06:19:58;27.17;;;12.82;;
18520;SDS011;9390;51.244;6.982;2023-08-31T06:22:29;27.88;;;12.25;;
18520;SDS011;9390;51.244;6.982;2023-08-31T06:25:01;26.52;;;13.02;;
18520;SDS011;9390;51.244;6.982;2023-08-31T06:27:34;23.60;;;12.32;;
18520;SDS011;9390;51.244;6.982;2023-08-31T06:30:07;29.53;;;11.50;;
18520;SDS011;9390;51.244;6.982;2023-08-31T06:32:42;27.98;;;11.25;;
18520;SDS011;9390;51.244;6.982;2023-08-31T06:35:15;25.50;;;11.60;;
18520;SDS011;9390;51.244;6.982;2023-08-31T06:37:47;28.00;;;12.95;;
18520;SDS011;9390;51.244;6.982;2023-08-31T06:42:51;26.38;;;11.65;;
18520;SDS011;9390;51.244;6.982;2023-08-31T06:45:23;26.33;;;11.43;;
18520;SDS011;9390;51.244;6.982;2023-08-31T06:47:54;18.58;;;11.07;;
18520;SDS011;9390;51.244;6.982;2023-08-31T06:50:27;25.02;;;11.45;;
18520;SDS011;9390;51.244;6.982;2023-08-31T06:52:58;23.05;;;10.73;;
18520;SDS011;9390;51.244;6.982;2023-08-31T06:55:30;23.02;;;11.18;;
18520;SDS011;9390;51.244;6.982;2023-08-31T06:58:04;24.75;;;11.00;;
18520;SDS011;9390;51.244;6.982;2023-08-31T07:00:36;25.13;;;10.88;;
18520;SDS011;9390;51.244;6.982;2023-08-31T07:03:07;19.50;;;10.93;;
18520;SDS011;9390;51.244;6.982;2023-08-31T07:05:42;22.17;;;10.90;;
18520;SDS011;9390;51.244;6.982;2023-08-31T07:08:14;25.98;;;10.95;;
18520;SDS011;9390;51.244;6.982;2023-08-31T07:10:45;21.83;;;11.48;;
18520;SDS011;9390;51.244;6.982;2023-08-31T07:13:17;21.23;;;11.05;;
18520;SDS011;9390;51.244;6.982;2023-08-31T07:15:49;20.33;;;10.95;;
18520;SDS011;9390;51.244;6.982;2023-08-31T07:18:20;22.70;;;10.40;;
18520;SDS011;9390;51.244;6.982;2023-08-31T07:20:53;19.95;;;10.30;;
18520;SDS011;9390;51.244;6.982;2023-08-31T07:23:24;20.05;;;9.95;;
18520;SDS011;9390;51.244;6.982;2023-08-31T07:25:56;22.15;;;9.57;;
18520;SDS011;9390;51.244;6.982;2023-08-31T07:28:30;24.42;;;10.18;;
18520;SDS011;9390;51.244;6.982;2023-08-31T07:31:02;16.20;;;9.40;;
18520;SDS011;9390;51.244;6.982;2023-08-31T07:33:34;21.05;;;9.25;;
18520;SDS011;9390;51.244;6.982;2023-08-31T07:36:07;18.40;;;9.23;;
18520;SDS011;9390;51.244;6.982;2023-08-31T07:38:39;20.92;;;9.05;;
18520;SDS011;9390;51.244;6.982;2023-08-31T07:41:10;19.23;;;9.00;;
18520;SDS011;9390;51.244;6.982;2023-08-31T07:43:42;15.63;;;7.63;;
18520;SDS011;9390;51.244;6.982;2023-08-31T07:46:13;13.27;;;6.97;;
18520;SDS011;9390;51.244;6.982;2023-08-31T07:48:44;17.23;;;7.97;;
18520;SDS011;9390;51.244;6.982;2023-08-31T07:51:18;13.68;;;7.53;;
18520;SDS011;9390;51.244;6.982;2023-08-31T07:53:53;16.42;;;7.15;;
18520;SDS011;9390;51.244;6.982;2023-08-31T07:56:24;18.45;;;7.35;;
18520;SDS011;9390;51.244;6.982;2023-08-31T07:58:55;18.33;;;7.65;;
18520;SDS011;9390;51.244;6.982;2023-08-31T08:01:27;15.85;;;6.43;;
18520;SDS011;9390;51.244;6.982;2023-08-31T08:03:58;16.48;;;7.15;;
18520;SDS011;9390;51.244;6.982;2023-08-31T08:06:31;15.88;;;6.80;;
18520;SDS011;9390;51.244;6.982;2023-08-31T08:09:02;11.70;;;6.32;;
18520;SDS011;9390;51.244;6.982;2023-08-31T08:11:34;13.00;;;6.28;;
18520;SDS011;9390;51.244;6.982;2023-08-31T08:14:06;11.63;;;5.55;;
18520;SDS011;9390;51.244;6.982;2023-08-31T08:16:37;19.20;;;6.00;;
18520;SDS011;9390;51.244;6.982;2023-08-31T08:19:08;16.38;;;5.97;;
18520;SDS011;9390;51.244;6.982;2023-08-31T08:21:41;14.18;;;5.78;;
18520;SDS011;9390;51.244;6.982;2023-08-31T08:24:13;12.02;;;5.78;;
18520;SDS011;9390;51.244;6.982;2023-08-31T08:26:44;12.45;;;5.50;;
18520;SDS011;9390;51.244;6.982;2023-08-31T08:29:15;14.73;;;5.47;;
18520;SDS011;9390;51.244;6.982;2023-08-31T08:31:47;44.42;;;6.20;;
18520;SDS011;9390;51.244;6.982;2023-08-31T08:34:18;11.90;;;5.05;;
18520;SDS011;9390;51.244;6.982;2023-08-31T08:36:51;13.15;;;4.65;;
18520;SDS011;9390;51.244;6.982;2023-08-31T08:39:22;12.30;;;4.35;;
18520;SDS011;9390;51.244;6.982;2023-08-31T08:41:54;10.68;;;4.50;;
18520;SDS011;9390;51.244;6.982;2023-08-31T08:44:25;9.95;;;4.45;;
18520;SDS011;9390;51.244;6.982;2023-08-31T08:46:57;13.10;;;4.67;;
18520;SDS011;9390;51.244;6.982;2023-08-31T08:49:29;10.50;;;4.47;;
18520;SDS011;9390;51.244;6.982;2023-08-31T08:52:03;9.68;;;4.20;;
18520;SDS011;9390;51.244;6.982;2023-08-31T08:54:35;12.60;;;3.92;;
18520;SDS011;9390;51.244;6.982;2023-08-31T08:57:06;10.93;;;4.28;;
18520;SDS011;9390;51.244;6.982;2023-08-31T08:59:38;11.98;;;3.88;;
18520;SDS011;9390;51.244;6.982;2023-08-31T09:02:10;11.05;;;4.22;;
18520;SDS011;9390;51.244;6.982;2023-08-31T09:04:42;7.32;;;3.50;;
18520;SDS011;9390;51.244;6.982;2023-08-31T09:07:14;8.73;;;3.80;;
18520;SDS011;9390;51.244;6.982;2023-08-31T09:09:48;10.07;;;4.47;;
18520;SDS011;9390;51.244;6.982;2023-08-31T09:12:21;9.25;;;3.90;;
18520;SDS011;9390;51.244;6.982;2023-08-31T09:14:57;8.75;;;3.90;;
18520;SDS011;9390;51.244;6.982;2023-08-31T09:17:37;9.48;;;3.50;;
18520;SDS011;9390;51.244;6.982;2023-08-31T09:20:09;8.10;;;3.00;;
18520;SDS011;9390;51.244;6.982;2023-08-31T09:22:43;8.60;;;2.53;;
18520;SDS011;9390;51.244;6.982;2023-08-31T09:25:15;8.10;;;3.00;;
18520;SDS011;9390;51.244;6.982;2023-08-31T09:27:46;7.88;;;3.08;;
18520;SDS011;9390;51.244;6.982;2023-08-31T09:30:18;7.95;;;2.78;;
18520;SDS011;9390;51.244;6.982;2023-08-31T09:32:52;8.07;;;2.58;;
18520;SDS011;9390;51.244;6.982;2023-08-31T09:35:24;5.80;;;2.33;;
18520;SDS011;9390;51.244;6.982;2023-08-31T09:37:57;8.35;;;2.90;;
18520;SDS011;9390;51.244;6.982;2023-08-31T09:43:00;12.65;;;3.00;;
18520;SDS011;9390;51.244;6.982;2023-08-31T09:45:32;7.45;;;2.45;;
18520;SDS011;9390;51.244;6.982;2023-08-31T09:48:04;7.97;;;2.50;;
18520;SDS011;9390;51.244;6.982;2023-08-31T09:50:36;5.10;;;2.03;;
18520;SDS011;9390;51.244;6.982;2023-08-31T09:53:10;6.85;;;2.05;;
18520;SDS011;9390;51.244;6.982;2023-08-31T09:55:43;7.15;;;2.25;;
18520;SDS011;9390;51.244;6.982;2023-08-31T09:58:16;7.50;;;2.17;;
18520;SDS011;9390;51.244;6.982;2023-08-31T10:00:49;7.07;;;2.10;;
18520;SDS011;9390;51.244;6.982;2023-08-31T10:03:22;7.80;;;2.50;;
18520;SDS011;9390;51.244;6.982;2023-08-31T10:05:53;10.75;;;2.20;;
18520;SDS011;9390;51.244;6.982;2023-08-31T10:08:26;5.68;;;1.92;;
18520;SDS011;9390;51.244;6.982;2023-08-31T10:11:01;7.35;;;2.10;;
18520;SDS011;9390;51.244;6.982;2023-08-31T10:13:33;9.52;;;2.42;;
18520;SDS011;9390;51.244;6.982;2023-08-31T10:16:07;10.68;;;2.50;;
18520;SDS011;9390;51.244;6.982;2023-08-31T10:18:39;10.90;;;2.43;;
18520;SDS011;9390;51.244;6.982;2023-08-31T10:21:11;6.38;;;2.22;;
18520;SDS011;9390;51.244;6.982;2023-08-31T10:23:47;7.95;;;2.38;;
18520;SDS011;9390;51.244;6.982;2023-08-31T10:26:23;8.27;;;2.40;;
18520;SDS011;9390;51.244;6.982;2023-08-31T10:28:56;10.25;;;2.22;;
18520;SDS011;9390;51.244;6.982;2023-08-31T10:31:28;6.80;;;2.15;;
18520;SDS011;9390;51.244;6.982;2023-08-31T10:34:00;7.77;;;2.30;;
18520;SDS011;9390;51.244;6.982;2023-08-31T10:36:34;4.30;;;1.90;;
18520;SDS011;9390;51.244;6.982;2023-08-31T10:39:14;7.97;;;2.13;;
18520;SDS011;9390;51.244;6.982;2023-08-31T10:41:51;10.02;;;2.45;;
18520;SDS011;9390;51.244;6.982;2023-08-31T10:44:25;6.47;;;1.85;;
18520;SDS011;9390;51.244;6.982;2023-08-31T10:46:59;8.63;;;2.58;;
18520;SDS011;9390;51.244;6.982;2023-08-31T10:49:30;6.28;;;2.05;;
18520;SDS011;9390;51.244;6.982;2023-08-31T10:52:15;11.57;;;2.65;;
18520;SDS011;9390;51.244;6.982;2023-08-31T10:54:51;8.07;;;2.15;;
18520;SDS011;9390;51.244;6.982;2023-08-31T10:57:29;5.57;;;1.80;;
18520;SDS011;9390;51.244;6.982;2023-08-31T11:00:01;7.53;;;2.30;;
18520;SDS011;9390;51.244;6.982;2023-08-31T11:02:35;7.10;;;2.38;;
18520;SDS011;9390;51.244;6.982;2023-08-31T11:05:08;5.32;;;1.90;;
18520;SDS011;9390;51.244;6.982;2023-08-31T11:07:40;6.13;;;2.10;;
18520;SDS011;9390;51.244;6.982;2023-08-31T11:10:14;12.80;;;2.60;;
18520;SDS011;9390;51.244;6.982;2023-08-31T11:12:48;7.70;;;2.00;;
18520;SDS011;9390;51.244;6.982;2023-08-31T11:15:20;6.93;;;2.22;;
18520;SDS011;9390;51.244;6.982;2023-08-31T11:17:53;8.07;;;2.85;;
18520;SDS011;9390;51.244;6.982;2023-08-31T11:20:25;6.57;;;2.30;;
18520;SDS011;9390;51.244;6.982;2023-08-31T11:22:58;8.40;;;2.10;;
18520;SDS011;9390;51.244;6.982;2023-08-31T11:25:31;5.00;;;1.83;;
18520;SDS011;9390;51.244;6.982;2023-08-31T11:28:03;6.85;;;2.10;;
18520;SDS011;9390;51.244;6.982;2023-08-31T11:30:37;8.05;;;2.05;;
18520;SDS011;9390;51.244;6.982;2023-08-31T11:33:10;7.78;;;1.98;;
18520;SDS011;9390;51.244;6.982;2023-08-31T11:35:43;8.40;;;2.00;;
18520;SDS011;9390;51.244;6.982;2023-08-31T11:38:16;9.77;;;2.22;;
18520;SDS011;9390;51.244;6.982;2023-08-31T11:40:48;8.27;;;2.13;;
18520;SDS011;9390;51.244;6.982;2023-08-31T11:43:20;8.35;;;2.08;;
18520;SDS011;9390;51.244;6.982;2023-08-31T11:45:52;5.38;;;1.85;;
18520;SDS011;9390;51.244;6.982;2023-08-31T11:48:23;12.32;;;2.50;;
18520;SDS011;9390;51.244;6.982;2023-08-31T11:50:55;9.70;;;2.47;;
18520;SDS011;9390;51.244;6.982;2023-08-31T11:53:26;5.53;;;1.80;;
18520;SDS011;9390;51.244;6.982;2023-08-31T11:58:39;6.75;;;2.33;;
18520;SDS011;9390;51.244;6.982;2023-08-31T12:01:17;7.47;;;2.30;;
18520;SDS011;9390;51.244;6.982;2023-08-31T12:03:48;9.57;;;2.25;;
18520;SDS011;9390;51.244;6.982;2023-08-31T12:06:20;4.65;;;1.90;;
18520;SDS011;9390;51.244;6.982;2023-08-31T12:08:51;6.22;;;1.95;;
18520;SDS011;9390;51.244;6.982;2023-08-31T12:11:24;6.53;;;1.92;;
18520;SDS011;9390;51.244;6.982;2023-08-31T12:16:31;12.27;;;2.13;;
18520;SDS011;9390;51.244;6.982;2023-08-31T12:19:05;8.85;;;2.42;;
18520;SDS011;9390;51.244;6.982;2023-08-31T12:21:36;8.15;;;2.97;;
18520;SDS011;9390;51.244;6.982;2023-08-31T12:24:08;9.60;;;3.15;;
18520;SDS011;9390;51.244;6.982;2023-08-31T12:26:41;10.57;;;3.45;;
18520;SDS011;9390;51.244;6.982;2023-08-31T12:29:12;9.23;;;2.78;;
18520;SDS011;9390;51.244;6.982;2023-08-31T12:31:43;7.10;;;2.67;;
18520;SDS011;9390;51.244;6.982;2023-08-31T12:34:15;7.57;;;3.15;;
18520;SDS011;9390;51.244;6.982;2023-08-31T12:36:47;7.75;;;3.05;;
18520;SDS011;9390;51.244;6.982;2023-08-31T12:39:18;11.60;;;3.13;;
18520;SDS011;9390;51.244;6.982;2023-08-31T12:41:51;6.35;;;3.25;;
18520;SDS011;9390;51.244;6.982;2023-08-31T12:44:22;12.38;;;3.58;;
18520;SDS011;9390;51.244;6.982;2023-08-31T12:46:55;9.68;;;4.07;;
18520;SDS011;9390;51.244;6.982;2023-08-31T12:49:26;8.40;;;3.60;;
18520;SDS011;9390;51.244;6.982;2023-08-31T12:51:58;6.60;;;3.70;;
18520;SDS011;9390;51.244;6.982;2023-08-31T12:54:29;10.20;;;3.75;;
18520;SDS011;9390;51.244;6.982;2023-08-31T12:57:02;9.07;;;3.20;;
18520;SDS011;9390;51.244;6.982;2023-08-31T12:59:35;8.60;;;2.90;;
18520;SDS011;9390;51.244;6.982;2023-08-31T13:02:06;10.20;;;3.55;;
18520;SDS011;9390;51.244;6.982;2023-08-31T13:04:40;9.48;;;3.60;;
18520;SDS011;9390;51.244;6.982;2023-08-31T13:07:12;9.38;;;3.47;;
18520;SDS011;9390;51.244;6.982;2023-08-31T13:09:43;8.20;;;3.28;;
18520;SDS011;9390;51.244;6.982;2023-08-31T13:12:16;9.65;;;3.33;;
18520;SDS011;9390;51.244;6.982;2023-08-31T13:14:48;6.97;;;2.70;;
18520;SDS011;9390;51.244;6.982;2023-08-31T13:17:20;6.65;;;2.67;;
18520;SDS011;9390;51.244;6.982;2023-08-31T13:19:53;10.57;;;2.63;;
18520;SDS011;9390;51.244;6.982;2023-08-31T13:22:25;7.47;;;3.08;;
18520;SDS011;9390;51.244;6.982;2023-08-31T13:24:56;7.97;;;2.97;;
18520;SDS011;9390;51.244;6.982;2023-08-31T13:27:29;9.65;;;2.75;;
18520;SDS011;9390;51.244;6.982;2023-08-31T13:30:03;7.63;;;2.60;;
18520;SDS011;9390;51.244;6.982;2023-08-31T13:32:36;6.78;;;2.28;;
18520;SDS011;9390;51.244;6.982;2023-08-31T13:35:08;7.88;;;2.60;;
18520;SDS011;9390;51.244;6.982;2023-08-31T13:37:40;9.10;;;2.70;;
18520;SDS011;9390;51.244;6.982;2023-08-31T13:40:11;7.35;;;2.28;;
18520;SDS011;9390;51.244;6.982;2023-08-31T13:42:52;7.03;;;2.20;;
18520;SDS011;9390;51.244;6.982;2023-08-31T13:45:24;6.43;;;2.28;;
18520;SDS011;9390;51.244;6.982;2023-08-31T13:47:56;7.85;;;2.40;;
18520;SDS011;9390;51.244;6.982;2023-08-31T13:53:00;7.00;;;2.38;;
18520;SDS011;9390;51.244;6.982;2023-08-31T13:55:31;10.57;;;2.28;;
18520;SDS011;9390;51.244;6.982;2023-08-31T13:58:06;7.60;;;1.95;;
18520;SDS011;9390;51.244;6.982;2023-08-31T14:00:39;7.25;;;2.25;;
18520;SDS011;9390;51.244;6.982;2023-08-31T14:03:12;10.05;;;2.35;;
18520;SDS011;9390;51.244;6.982;2023-08-31T14:05:47;6.78;;;1.65;;
18520;SDS011;9390;51.244;6.982;2023-08-31T14:08:18;14.30;;;2.20;;
18520;SDS011;9390;51.244;6.982;2023-08-31T14:10:51;5.78;;;1.92;;
18520;SDS011;9390;51.244;6.982;2023-08-31T14:13:25;7.35;;;2.28;;
18520;SDS011;9390;51.244;6.982;2023-08-31T14:15:57;6.93;;;1.90;;
18520;SDS011;9390;51.244;6.982;2023-08-31T14:18:28;7.25;;;1.73;;
18520;SDS011;9390;51.244;6.982;2023-08-31T14:21:01;9.27;;;1.73;;
18520;SDS011;9390;51.244;6.982;2023-08-31T14:23:33;8.13;;;1.88;;
18520;SDS011;9390;51.244;6.982;2023-08-31T14:26:04;8.23;;;2.15;;
18520;SDS011;9390;51.244;6.982;2023-08-31T14:28:37;4.53;;;1.85;;
18520;SDS011;9390;51.244;6.982;2023-08-31T14:31:08;6.97;;;1.95;;
18520;SDS011;9390;51.244;6.982;2023-08-31T14:33:40;4.68;;;1.63;;
18520;SDS011;9390;51.244;6.982;2023-08-31T14:36:13;5.75;;;1.83;;
18520;SDS011;9390;51.244;6.982;2023-08-31T14:38:45;5.15;;;1.90;;
18520;SDS011;9390;51.244;6.982;2023-08-31T14:41:16;8.10;;;1.92;;
18520;SDS011;9390;51.244;6.982;2023-08-31T14:43:49;7.30;;;2.05;;
18520;SDS011;9390;51.244;6.982;2023-08-31T14:48:54;8.63;;;2.08;;
18520;SDS011;9390;51.244;6.982;2023-08-31T14:51:25;7.00;;;2.22;;
18520;SDS011;9390;51.244;6.982;2023-08-31T14:53:57;7.25;;;2.00;;
18520;SDS011;9390;51.244;6.982;2023-08-31T14:56:28;5.72;;;2.20;;
18520;SDS011;9390;51.244;6.982;2023-08-31T14:59:01;10.80;;;2.50;;
18520;SDS011;9390;51.244;6.982;2023-08-31T15:01:32;8.60;;;2.50;;
18520;SDS011;9390;51.244;6.982;2023-08-31T15:04:04;8.68;;;2.20;;
18520;SDS011;9390;51.244;6.982;2023-08-31T15:06:36;5.43;;;2.30;;
18520;SDS011;9390;51.244;6.982;2023-08-31T15:09:07;6.18;;;2.05;;
18520;SDS011;9390;51.244;6.982;2023-08-31T15:11:38;6.30;;;1.98;;
18520;SDS011;9390;51.244;6.982;2023-08-31T15:14:12;7.80;;;2.20;;
18520;SDS011;9390;51.244;6.982;2023-08-31T15:16:43;7.93;;;2.08;;
18520;SDS011;9390;51.244;6.982;2023-08-31T15:19:15;6.88;;;2.70;;
18520;SDS011;9390;51.244;6.982;2023-08-31T15:21:46;10.38;;;2.88;;
18520;SDS011;9390;51.244;6.982;2023-08-31T15:24:17;5.97;;;2.58;;
18520;SDS011;9390;51.244;6.982;2023-08-31T15:26:49;7.15;;;3.10;;
18520;SDS011;9390;51.244;6.982;2023-08-31T15:29:22;9.00;;;2.85;;
18520;SDS011;9390;51.244;6.982;2023-08-31T15:31:53;8.70;;;2.92;;
18520;SDS011;9390;51.244;6.982;2023-08-31T15:34:24;7.32;;;2.72;;
18520;SDS011;9390;51.244;6.982;2023-08-31T15:36:57;5.55;;;3.00;;
18520;SDS011;9390;51.244;6.982;2023-08-31T15:39:28;7.55;;;3.00;;